createdAt,value
2022-11-29T00:02:55.503Z,14.88
2022-11-29T00:06:06.658Z,17.77
2022-11-29T00:09:13.172Z,18.23
2022-11-29T00:12:18.211Z,13.85
2022-11-29T00:15:22.887Z,18.65
2022-11-29T00:18:27.376Z,16.27
2022-11-29T00:21:31.813Z,18.00
2022-11-29T00:24:36.727Z,15.07
2022-11-29T00:27:41.508Z,16.23
2022-11-29T00:30:46.181Z,17.13
2022-11-29T00:33:51.559Z,15.95
2022-11-29T00:36:55.974Z,21.33
2022-11-29T00:40:00.272Z,16.63
2022-11-29T00:43:04.856Z,15.77
2022-11-29T00:46:11.845Z,17.55
2022-11-29T00:49:16.980Z,17.25
2022-11-29T00:52:21.841Z,17.33
2022-11-29T00:55:26.759Z,13.43
2022-11-29T00:58:32.499Z,16.17
2022-11-29T01:01:37.112Z,15.70
2022-11-29T01:04:41.927Z,15.18
2022-11-29T01:07:46.714Z,13.88
2022-11-29T01:11:00.530Z,15.30
2022-11-29T01:14:04.816Z,15.27
2022-11-29T01:17:09.265Z,20.33
2022-11-29T01:20:14.331Z,16.40
2022-11-29T01:23:19.258Z,18.25
2022-11-29T01:26:27.830Z,18.30
2022-11-29T01:29:32.611Z,18.33
2022-11-29T01:32:37.768Z,18.05
2022-11-29T01:35:51.960Z,20.13
2022-11-29T01:39:00.653Z,20.90
2022-11-29T01:42:05.964Z,17.90
2022-11-29T01:45:28.894Z,19.25
2022-11-29T01:48:33.729Z,15.85
2022-11-29T01:51:42.970Z,16.50
2022-11-29T01:54:54.646Z,14.73
2022-11-29T01:58:00.751Z,17.52
2022-11-29T02:01:05.249Z,16.85
2022-11-29T02:04:09.980Z,18.10
2022-11-29T02:07:15.380Z,21.42
2022-11-29T02:10:24.871Z,20.73
2022-11-29T02:14:02.622Z,19.25
2022-11-29T02:17:30.944Z,21.80
2022-11-29T02:21:24.109Z,16.65
2022-11-29T02:24:46.941Z,15.55
2022-11-29T02:28:10.058Z,20.98
2022-11-29T02:32:03.252Z,19.27
2022-11-29T02:35:38.012Z,33.50
2022-11-29T02:39:07.631Z,19.95
2022-11-29T02:42:54.138Z,17.48
2022-11-29T02:46:35.288Z,16.23
2022-11-29T02:50:10.255Z,13.52
2022-11-29T02:53:33.815Z,20.33
2022-11-29T02:56:48.112Z,16.75
2022-11-29T03:00:21.566Z,20.30
2022-11-29T03:03:47.951Z,16.70
2022-11-29T03:07:20.215Z,14.52
2022-11-29T03:10:58.515Z,15.52
2022-11-29T03:14:43.959Z,15.60
2022-11-29T03:17:59.923Z,18.00
2022-11-29T03:21:40.806Z,15.48
2022-11-29T03:24:55.304Z,18.40
2022-11-29T03:28:08.653Z,16.25
2022-11-29T03:31:25.340Z,18.98
2022-11-29T03:35:10.178Z,19.05
2022-11-29T03:38:30.218Z,17.15
2022-11-29T03:41:46.865Z,19.65
2022-11-29T03:45:05.277Z,19.25
2022-11-29T03:48:24.519Z,22.15
2022-11-29T03:51:52.794Z,18.85
2022-11-29T03:55:21.397Z,22.38
2022-11-29T03:59:11.723Z,22.63
2022-11-29T04:02:47.137Z,18.35
2022-11-29T04:06:04.246Z,15.30
2022-11-29T04:09:26.161Z,24.10
2022-11-29T04:12:59.510Z,22.33
2022-11-29T04:16:21.067Z,19.55
2022-11-29T04:19:44.189Z,19.50
2022-11-29T04:23:38.786Z,21.48
2022-11-29T04:27:20.370Z,16.60
2022-11-29T04:30:46.804Z,16.55
2022-11-29T04:34:39.205Z,17.83
2022-11-29T04:38:05.105Z,16.08
2022-11-29T04:41:55.156Z,21.83
2022-11-29T04:45:30.256Z,18.45
2022-11-29T04:49:02.748Z,23.85
2022-11-29T04:52:28.662Z,17.70
2022-11-29T04:55:59.736Z,18.25
2022-11-29T04:59:25.337Z,16.80
2022-11-29T05:02:53.363Z,19.67
2022-11-29T05:06:20.013Z,16.42
2022-11-29T05:10:00.307Z,18.67
2022-11-29T05:13:29.508Z,19.63
2022-11-29T05:16:55.187Z,20.75
2022-11-29T05:20:50.805Z,16.92
2022-11-29T05:24:33.008Z,18.67
2022-11-29T05:28:10.248Z,14.55
2022-11-29T05:31:30.008Z,17.38
2022-11-29T05:35:42.509Z,18.00
2022-11-29T05:39:15.874Z,19.17
2022-11-29T05:42:47.025Z,15.43
2022-11-29T05:46:04.235Z,15.55
2022-11-29T05:49:58.219Z,16.90
2022-11-29T05:53:40.977Z,14.30
2022-11-29T05:57:21.835Z,17.90
2022-11-29T06:00:53.926Z,15.00
2022-11-29T06:04:28.806Z,16.05
2022-11-29T06:07:40.780Z,19.00
2022-11-29T06:11:41.634Z,20.17
2022-11-29T06:15:19.185Z,15.70
2022-11-29T06:19:17.255Z,18.35
2022-11-29T06:22:41.750Z,16.50
2022-11-29T06:26:39.631Z,18.70
2022-11-29T06:30:18.114Z,12.68
2022-11-29T06:33:56.368Z,16.95
2022-11-29T06:37:19.925Z,12.27
2022-11-29T06:40:25.431Z,16.70
2022-11-29T06:43:31.538Z,14.05
2022-11-29T06:46:51.609Z,17.58
2022-11-29T06:50:09.666Z,16.88
2022-11-29T06:53:31.611Z,16.20
2022-11-29T06:56:59.736Z,13.60
2022-11-29T07:00:23.419Z,18.10
2022-11-29T07:03:59.029Z,16.50
2022-11-29T07:07:04.244Z,18.05
2022-11-29T07:10:17.202Z,12.13
2022-11-29T07:13:23.211Z,13.18
2022-11-29T07:16:44.324Z,12.27
2022-11-29T07:20:09.887Z,13.80
2022-11-29T07:23:45.140Z,12.30
2022-11-29T07:27:08.580Z,11.60
2022-11-29T07:30:15.270Z,11.63
2022-11-29T07:33:52.477Z,14.18
2022-11-29T07:37:02.751Z,13.52
2022-11-29T07:40:19.625Z,12.25
2022-11-29T07:43:42.201Z,13.55
2022-11-29T07:46:47.139Z,13.45
2022-11-29T07:49:51.939Z,13.82
2022-11-29T07:52:57.377Z,16.02
2022-11-29T07:56:01.914Z,12.02
2022-11-29T07:59:10.943Z,12.93
2022-11-29T08:02:29.986Z,14.40
2022-11-29T08:05:36.189Z,13.02
2022-11-29T08:08:43.923Z,15.57
2022-11-29T08:11:48.989Z,14.30
2022-11-29T08:14:53.544Z,16.85
2022-11-29T08:17:57.846Z,14.65
2022-11-29T08:21:07.380Z,14.80
2022-11-29T08:24:12.000Z,18.75
2022-11-29T08:27:17.023Z,15.98
2022-11-29T08:30:23.202Z,14.13
2022-11-29T08:33:28.623Z,13.48
2022-11-29T08:36:33.587Z,13.52
2022-11-29T08:39:38.228Z,12.57
2022-11-29T08:42:42.833Z,11.35
2022-11-29T08:45:52.731Z,12.25
2022-11-29T08:48:57.406Z,10.73
2022-11-29T08:52:20.248Z,11.00
2022-11-29T08:55:28.058Z,11.43
2022-11-29T08:58:32.759Z,9.63
2022-11-29T09:01:37.170Z,9.02
2022-11-29T09:04:42.326Z,9.38
2022-11-29T09:07:47.262Z,8.73
2022-11-29T09:10:51.916Z,8.57
2022-11-29T09:14:01.873Z,8.73
2022-11-29T09:17:06.192Z,7.88
2022-11-29T09:20:11.383Z,9.00
2022-11-29T09:23:16.366Z,7.35
2022-11-29T09:26:20.853Z,11.30
2022-11-29T09:29:25.242Z,9.50
2022-11-29T09:32:31.038Z,8.95
2022-11-29T09:35:35.786Z,10.70
2022-11-29T09:38:41.303Z,8.68
2022-11-29T09:42:13.426Z,9.73
2022-11-29T09:45:24.396Z,9.63
2022-11-29T09:48:47.223Z,10.98
2022-11-29T09:52:04.088Z,7.63
2022-11-29T09:55:45.513Z,8.63
2022-11-29T09:59:04.877Z,8.85
2022-11-29T10:02:21.338Z,8.50
2022-11-29T10:05:31.455Z,7.70
2022-11-29T10:09:01.590Z,7.32
2022-11-29T10:12:34.942Z,8.93
2022-11-29T10:15:43.645Z,9.30
2022-11-29T10:19:35.273Z,8.40
2022-11-29T10:22:55.436Z,8.40
2022-11-29T10:26:00.324Z,8.40
2022-11-29T10:29:04.898Z,9.13
2022-11-29T10:32:15.640Z,8.93
2022-11-29T10:35:21.057Z,10.65
2022-11-29T10:38:31.211Z,10.85
2022-11-29T10:41:36.636Z,7.72
2022-11-29T10:44:41.395Z,10.57
2022-11-29T10:47:48.364Z,8.25
2022-11-29T10:50:53.655Z,7.13
2022-11-29T10:54:27.791Z,9.43
2022-11-29T10:57:32.633Z,8.40
2022-11-29T11:01:02.085Z,7.57
2022-11-29T11:04:10.038Z,7.03
2022-11-29T11:07:28.120Z,7.22
2022-11-29T11:10:32.733Z,9.45
2022-11-29T11:13:39.265Z,5.93
2022-11-29T11:16:43.904Z,6.45
2022-11-29T11:20:19.006Z,7.28
2022-11-29T11:23:31.540Z,5.82
2022-11-29T11:26:44.956Z,6.32
2022-11-29T11:29:52.668Z,6.07
2022-11-29T11:33:30.026Z,7.40
2022-11-29T11:36:34.665Z,7.82
2022-11-29T11:39:39.161Z,7.03
2022-11-29T11:42:43.982Z,7.00
2022-11-29T11:45:54.532Z,6.55
2022-11-29T11:48:59.070Z,9.07
2022-11-29T11:52:06.637Z,8.70
2022-11-29T11:55:40.782Z,7.72
2022-11-29T11:58:58.392Z,7.32
2022-11-29T12:02:03.104Z,10.55
2022-11-29T12:05:20.225Z,8.25
2022-11-29T12:08:26.929Z,5.93
2022-11-29T12:12:08.559Z,10.18
2022-11-29T12:15:21.179Z,8.68
2022-11-29T12:18:50.990Z,7.28
2022-11-29T12:22:02.982Z,9.10
2022-11-29T12:25:15.067Z,8.20
2022-11-29T12:28:22.373Z,8.05
2022-11-29T12:31:55.625Z,9.07
2022-11-29T12:35:19.165Z,7.15
2022-11-29T12:38:44.714Z,9.15
2022-11-29T12:42:01.606Z,10.65
2022-11-29T12:45:33.845Z,10.32
2022-11-29T12:49:03.367Z,10.82
2022-11-29T12:52:20.093Z,15.68
2022-11-29T12:55:32.117Z,10.30
2022-11-29T12:59:08.465Z,9.70
2022-11-29T13:02:31.413Z,9.38
2022-11-29T13:05:57.798Z,11.15
2022-11-29T13:09:30.888Z,9.48
2022-11-29T13:12:43.457Z,11.95
2022-11-29T13:16:25.125Z,9.15
2022-11-29T13:19:58.098Z,8.60
2022-11-29T13:23:33.663Z,7.57
2022-11-29T13:26:45.976Z,9.50
2022-11-29T13:29:51.070Z,9.68
2022-11-29T13:33:16.625Z,12.43
2022-11-29T13:36:29.608Z,10.07
2022-11-29T13:40:14.744Z,9.88
2022-11-29T13:44:29.429Z,8.13
2022-11-29T13:47:53.371Z,7.68
2022-11-29T13:50:58.296Z,9.77
2022-11-29T13:54:26.512Z,7.15
2022-11-29T14:01:21.555Z,8.18
2022-11-29T14:04:36.749Z,7.55
2022-11-29T14:08:24.245Z,5.75
2022-11-29T14:12:16.784Z,6.28
2022-11-29T14:15:29.525Z,5.38
2022-11-29T14:18:37.044Z,6.55
2022-11-29T14:22:02.800Z,7.45
2022-11-29T14:28:48.601Z,9.75
2022-11-29T14:31:55.312Z,9.88
2022-11-29T14:35:12.160Z,6.78
2022-11-29T14:38:58.732Z,10.45
2022-11-29T14:42:20.674Z,7.93
2022-11-29T14:45:32.918Z,7.53
2022-11-29T14:48:38.287Z,6.78
2022-11-29T14:52:14.862Z,8.70
2022-11-29T14:55:25.318Z,7.95
2022-11-29T14:58:29.887Z,7.45
2022-11-29T15:01:34.906Z,8.02
2022-11-29T15:04:40.381Z,7.63
2022-11-29T15:08:14.939Z,8.80
2022-11-29T15:11:51.617Z,9.30
2022-11-29T15:15:32.718Z,6.88
2022-11-29T15:19:13.183Z,8.00
2022-11-29T15:22:38.512Z,7.18
2022-11-29T15:25:53.119Z,6.60
2022-11-29T15:29:19.731Z,8.35
2022-11-29T15:32:32.456Z,8.45
2022-11-29T15:35:37.351Z,10.45
2022-11-29T15:38:52.616Z,8.05
2022-11-29T15:42:15.500Z,7.00
2022-11-29T15:45:33.568Z,8.38
2022-11-29T15:48:39.134Z,7.95
2022-11-29T15:51:49.193Z,6.15
2022-11-29T15:55:03.179Z,8.73
2022-11-29T15:58:12.943Z,7.43
2022-11-29T16:01:21.990Z,6.18
2022-11-29T16:04:27.335Z,7.05
2022-11-29T16:07:34.306Z,7.47
2022-11-29T16:10:47.547Z,7.50
2022-11-29T16:14:05.283Z,6.10
2022-11-29T16:17:09.744Z,7.88
2022-11-29T16:20:14.007Z,7.85
2022-11-29T16:23:18.774Z,7.65
2022-11-29T16:26:33.747Z,8.88
2022-11-29T16:29:45.077Z,12.38
2022-11-29T16:33:00.259Z,7.45
2022-11-29T16:36:16.479Z,6.07
2022-11-29T16:39:24.034Z,9.05
2022-11-29T16:42:33.622Z,7.63
2022-11-29T16:45:42.741Z,9.10
2022-11-29T16:48:49.524Z,7.65
2022-11-29T16:51:54.620Z,9.55
2022-11-29T16:54:59.714Z,8.43
2022-11-29T16:58:04.346Z,8.73
2022-11-29T17:01:22.268Z,9.88
2022-11-29T17:04:26.961Z,8.30
2022-11-29T17:07:37.628Z,11.15
2022-11-29T17:10:42.221Z,8.55
2022-11-29T17:13:48.227Z,10.65
2022-11-29T17:16:52.893Z,8.93
2022-11-29T17:19:57.324Z,9.05
2022-11-29T17:23:01.895Z,10.38
2022-11-29T17:26:07.636Z,10.25
2022-11-29T17:29:15.054Z,9.77
2022-11-29T17:32:24.922Z,9.60
2022-11-29T17:35:31.167Z,8.25
2022-11-29T17:38:36.663Z,12.25
2022-11-29T17:41:41.812Z,9.27
2022-11-29T17:44:46.647Z,13.70
2022-11-29T17:47:53.221Z,10.15
2022-11-29T17:51:00.474Z,10.13
2022-11-29T17:54:05.494Z,11.07
2022-11-29T17:57:10.295Z,10.07
2022-11-29T18:00:15.834Z,9.55
2022-11-29T18:03:20.698Z,9.32
2022-11-29T18:06:30.048Z,8.95
2022-11-29T18:09:34.558Z,8.63
2022-11-29T18:12:38.837Z,10.90
2022-11-29T18:15:43.676Z,8.82
2022-11-29T18:18:53.960Z,10.70
2022-11-29T18:21:58.834Z,9.15
2022-11-29T18:25:30.530Z,8.88
2022-11-29T18:28:29.859Z,8.70
2022-11-29T18:31:37.633Z,9.00
2022-11-29T18:34:42.462Z,8.35
2022-11-29T18:38:13.934Z,8.73
2022-11-29T18:41:21.222Z,9.32
2022-11-29T18:47:35.413Z,6.90
2022-11-29T18:50:39.877Z,8.13
2022-11-29T18:53:45.414Z,8.25
2022-11-29T18:56:51.314Z,8.27
2022-11-29T18:59:56.604Z,9.05
2022-11-29T19:03:00.979Z,10.85
2022-11-29T19:06:09.744Z,8.25
2022-11-29T19:09:19.317Z,8.25
2022-11-29T19:12:24.012Z,10.30
2022-11-29T19:15:28.510Z,11.27
2022-11-29T19:18:33.049Z,11.18
2022-11-29T19:21:39.918Z,14.80
2022-11-29T19:24:45.059Z,11.02
2022-11-29T19:27:49.793Z,9.10
2022-11-29T19:30:55.059Z,11.57
2022-11-29T19:33:59.777Z,11.45
2022-11-29T19:37:04.166Z,10.27
2022-11-29T19:40:09.514Z,8.52
2022-11-29T19:43:13.767Z,10.60
2022-11-29T19:46:24.985Z,14.10
2022-11-29T19:49:29.440Z,11.40
2022-11-29T19:52:34.662Z,10.35
2022-11-29T19:55:43.811Z,12.13
2022-11-29T19:58:49.776Z,13.82
2022-11-29T20:01:54.413Z,10.05
2022-11-29T20:04:58.674Z,10.57
2022-11-29T20:08:03.387Z,8.55
2022-11-29T20:11:22.278Z,9.75
2022-11-29T20:14:27.743Z,10.93
2022-11-29T20:17:32.665Z,10.60
2022-11-29T20:20:37.389Z,8.85
2022-11-29T20:23:43.262Z,10.10
2022-11-29T20:26:49.742Z,9.23
2022-11-29T20:29:54.531Z,10.15
2022-11-29T20:32:59.259Z,9.70
2022-11-29T20:36:36.289Z,10.38
2022-11-29T20:39:42.401Z,9.30
2022-11-29T20:43:04.274Z,8.48
2022-11-29T20:46:09.373Z,8.35
2022-11-29T20:49:15.303Z,10.27
2022-11-29T20:52:38.184Z,7.57
2022-11-29T20:55:47.997Z,11.52
2022-11-29T20:58:52.868Z,7.85
2022-11-29T21:02:01.107Z,9.05
2022-11-29T21:05:06.787Z,8.35
2022-11-29T21:08:12.783Z,8.80
2022-11-29T21:11:18.019Z,8.52
2022-11-29T21:14:23.254Z,9.57
2022-11-29T21:17:33.382Z,11.73
2022-11-29T21:20:38.355Z,8.73
2022-11-29T21:24:48.337Z,12.45
2022-11-29T21:27:55.353Z,12.80
2022-11-29T21:31:00.866Z,11.40
2022-11-29T21:34:05.564Z,12.65
2022-11-29T21:37:10.369Z,14.35
2022-11-29T21:40:15.537Z,13.80
2022-11-29T21:43:20.753Z,9.95
2022-11-29T21:46:27.584Z,10.70
2022-11-29T21:49:32.409Z,11.57
2022-11-29T21:52:37.407Z,10.77
2022-11-29T21:55:42.330Z,11.68
2022-11-29T21:58:46.988Z,12.77
2022-11-29T22:01:52.728Z,11.00
2022-11-29T22:04:57.391Z,10.15
2022-11-29T22:08:01.769Z,12.98
2022-11-29T22:11:31.112Z,12.25
2022-11-29T22:14:36.821Z,14.45
2022-11-29T22:17:42.049Z,11.07
2022-11-29T22:20:49.650Z,12.35
2022-11-29T22:23:55.035Z,11.77
2022-11-29T22:27:01.639Z,11.63
2022-11-29T22:30:07.554Z,13.15
2022-11-29T22:33:13.597Z,11.35
2022-11-29T22:36:18.463Z,10.48
2022-11-29T22:39:24.163Z,11.05
2022-11-29T22:42:28.683Z,12.23
2022-11-29T22:45:33.271Z,12.02
2022-11-29T22:48:39.196Z,9.65
2022-11-29T22:51:43.795Z,12.25
2022-11-29T22:54:48.469Z,10.48
2022-11-29T22:57:53.710Z,11.32
2022-11-29T23:01:03.053Z,11.05
2022-11-29T23:04:10.099Z,11.43
2022-11-29T23:07:14.787Z,12.98
2022-11-29T23:10:19.116Z,14.90
2022-11-29T23:13:24.512Z,16.15
2022-11-29T23:16:30.609Z,13.48
2022-11-29T23:19:34.963Z,12.27
2022-11-29T23:22:39.735Z,11.07
2022-11-29T23:25:49.681Z,12.77
2022-11-29T23:28:55.205Z,19.58
2022-11-29T23:31:59.998Z,12.73
2022-11-29T23:35:06.628Z,11.63
2022-11-29T23:38:11.253Z,13.07
2022-11-29T23:41:16.471Z,11.98
2022-11-29T23:44:21.224Z,10.70
2022-11-29T23:47:26.004Z,10.77
2022-11-29T23:50:30.525Z,9.20
2022-11-29T23:53:34.909Z,10.52
2022-11-29T23:56:39.351Z,9.93
2022-11-29T23:59:44.344Z,10.85
